Time;durP1;ratioP1;P1;durP2;ratioP2;P2;SDS_P1;SDS_P2;PMS_P1;PMS_P2;Temp;Humidity;BMP_temperature;BMP_pressure;BME280_temperature;BME280_humidity;BME280_pressure;Samples;Min_cycle;Max_cycle;Signal;HPM_P1;HPM_P2
2022/05/24 00:02:19;;;;;;;17.27;14.07;;;;;;;;;;5075376;28;20579;-66
2022/05/24 00:04:45;;;;;;;15.40;12.60;;;;;;;;;;5075209;28;20276;-65
2022/05/24 00:07:11;;;;;;;18.37;14.03;;;;;;;;;;5075495;28;20212;-65
2022/05/24 00:09:38;;;;;;;18.17;12.90;;;;;;;;;;5075290;28;20197;-66
2022/05/24 00:12:04;;;;;;;19.30;14.23;;;;;;;;;;5075155;28;20665;-65
2022/05/24 00:17:14;;;;;;;15.10;12.43;;;;;;;;;;5075196;28;20231;-65
2022/05/24 00:19:40;;;;;;;18.37;13.73;;;;;;;;;;5075075;28;20649;-65
2022/05/24 00:22:06;;;;;;;19.23;13.60;;;;;;;;;;5074983;28;20197;-66
2022/05/24 00:24:32;;;;;;;17.33;13.33;;;;;;;;;;5074703;28;20205;-66
2022/05/24 00:26:58;;;;;;;16.13;12.53;;;;;;;;;;5074900;28;20178;-65
2022/05/24 00:29:24;;;;;;;16.67;13.07;;;;;;;;;;5075009;28;20178;-65
2022/05/24 00:31:50;;;;;;;15.80;12.60;;;;;;;;;;5075046;28;20202;-65
2022/05/24 00:34:16;;;;;;;19.63;12.33;;;;;;;;;;5056851;28;20187;-66
2022/05/24 00:36:42;;;;;;;17.63;12.37;;;;;;;;;;5056873;28;20186;-66
2022/05/24 00:39:08;;;;;;;12.87;10.97;;;;;;;;;;5074640;28;20275;-65
2022/05/24 00:41:40;;;;;;;14.07;11.57;;;;;;;;;;5074870;28;20696;-65
2022/05/24 00:44:16;;;;;;;15.17;12.60;;;;;;;;;;5056475;28;20208;-66
2022/05/24 00:46:47;;;;;;;14.57;12.57;;;;;;;;;;5074634;28;20177;-65
2022/05/24 00:49:23;;;;;;;14.83;11.63;;;;;;;;;;5074733;28;20178;-66
2022/05/24 00:51:52;;;;;;;15.53;12.30;;;;;;;;;;5056501;28;20213;-64
2022/05/24 00:54:18;;;;;;;14.93;12.60;;;;;;;;;;5056641;28;20181;-65
2022/05/24 00:57:01;;;;;;;16.07;12.47;;;;;;;;;;5073949;28;20185;-65
2022/05/24 00:59:27;;;;;;;16.20;13.07;;;;;;;;;;5073935;28;20174;-65
2022/05/24 01:01:53;;;;;;;16.53;13.03;;;;;;;;;;5074163;28;20572;-65
2022/05/24 01:04:22;;;;;;;16.30;13.03;;;;;;;;;;5074046;28;20201;-65
2022/05/24 01:06:49;;;;;;;15.13;12.93;;;;;;;;;;5056883;28;20174;-65
2022/05/24 01:09:18;;;;;;;17.70;13.53;;;;;;;;;;5073897;28;20234;-66
2022/05/24 01:11:49;;;;;;;18.80;13.00;;;;;;;;;;5074089;28;20201;-66
2022/05/24 01:14:16;;;;;;;16.93;13.13;;;;;;;;;;5056053;28;20555;-65
2022/05/24 01:16:42;;;;;;;18.80;13.63;;;;;;;;;;5055962;28;20193;-66
2022/05/24 01:19:10;;;;;;;15.43;12.37;;;;;;;;;;5073733;28;20591;-66
2022/05/24 01:21:36;;;;;;;15.93;12.17;;;;;;;;;;5055691;28;20209;-66
2022/05/24 01:24:20;;;;;;;16.87;12.57;;;;;;;;;;5055706;28;20181;-65
2022/05/24 01:26:49;;;;;;;17.57;13.07;;;;;;;;;;5055734;28;20219;-65
2022/05/24 01:29:15;;;;;;;17.83;12.83;;;;;;;;;;5073521;28;20223;-65
2022/05/24 01:37:12;;;;;;;15.77;11.83;;;;;;;;;;5074165;28;20180;-65
2022/05/24 01:39:38;;;;;;;14.87;11.73;;;;;;;;;;5073570;28;20269;-65
2022/05/24 01:42:05;;;;;;;21.60;13.27;;;;;;;;;;5073718;28;20221;-65
2022/05/24 01:44:33;;;;;;;18.13;12.47;;;;;;;;;;5073642;28;20300;-65
2022/05/24 01:47:00;;;;;;;16.50;11.83;;;;;;;;;;5055723;28;20178;-65
2022/05/24 01:49:28;;;;;;;16.13;11.87;;;;;;;;;;5055316;28;20181;-65
2022/05/24 01:52:06;;;;;;;16.93;12.97;;;;;;;;;;5063769;22;20261;-67
2022/05/24 01:54:36;;;;;;;15.53;11.77;;;;;;;;;;5053719;28;20190;-67
2022/05/24 01:57:06;;;;;;;17.60;13.47;;;;;;;;;;5035672;28;20208;-67
2022/05/24 01:59:32;;;;;;;14.80;12.17;;;;;;;;;;5053480;28;20181;-68
2022/05/24 02:01:59;;;;;;;18.37;12.60;;;;;;;;;;5053422;28;20205;-67
2022/05/24 02:04:27;;;;;;;14.53;11.47;;;;;;;;;;5053101;28;20632;-67
2022/05/24 02:07:05;;;;;;;16.13;12.47;;;;;;;;;;5053124;28;20178;-67
2022/05/24 02:09:31;;;;;;;15.83;11.43;;;;;;;;;;5039627;28;20276;-66
2022/05/24 02:11:59;;;;;;;15.43;12.20;;;;;;;;;;5060565;28;20201;-66
2022/05/24 02:14:26;;;;;;;16.20;11.97;;;;;;;;;;5042183;28;20217;-66
2022/05/24 02:16:55;;;;;;;12.93;11.23;;;;;;;;;;5041912;28;20239;-69
2022/05/24 02:19:22;;;;;;;14.37;11.37;;;;;;;;;;5059682;28;20178;-67
2022/05/24 02:21:52;;;;;;;16.37;12.50;;;;;;;;;;5041616;28;20251;-67
2022/05/24 02:24:23;;;;;;;18.00;11.77;;;;;;;;;;5059886;28;20194;-66
2022/05/24 02:26:49;;;;;;;13.47;11.10;;;;;;;;;;5059720;28;20178;-67
2022/05/24 02:29:16;;;;;;;14.50;11.57;;;;;;;;;;5041608;28;20182;-66
2022/05/24 02:31:43;;;;;;;15.53;11.73;;;;;;;;;;5041604;28;20198;-66
2022/05/24 02:34:09;;;;;;;13.80;9.93;;;;;;;;;;5059558;28;20259;-66
2022/05/24 02:36:35;;;;;;;14.37;10.40;;;;;;;;;;5059462;28;20252;-67
2022/05/24 02:39:01;;;;;;;14.93;10.47;;;;;;;;;;5059789;28;20208;-66
2022/05/24 02:41:36;;;;;;;13.60;10.27;;;;;;;;;;5059852;28;20205;-67
2022/05/24 02:44:07;;;;;;;15.77;9.93;;;;;;;;;;5060044;28;20514;-64
2022/05/24 02:46:34;;;;;;;12.67;10.03;;;;;;;;;;5059860;28;20523;-64
2022/05/24 02:49:00;;;;;;;13.13;10.23;;;;;;;;;;5041483;28;20200;-63
2022/05/24 02:51:26;;;;;;;12.17;9.27;;;;;;;;;;5059177;28;20681;-66
2022/05/24 02:53:52;;;;;;;9.30;7.80;;;;;;;;;;5059660;28;20178;-67
2022/05/24 02:56:18;;;;;;;11.53;7.50;;;;;;;;;;5059670;28;20235;-66
2022/05/24 02:58:44;;;;;;;10.67;7.73;;;;;;;;;;5059726;28;20178;-66
2022/05/24 03:01:15;;;;;;;9.27;7.40;;;;;;;;;;5059326;28;20197;-66
2022/05/24 03:03:41;;;;;;;8.80;6.87;;;;;;;;;;5059661;28;20166;-66
2022/05/24 03:06:07;;;;;;;7.60;6.80;;;;;;;;;;5059560;28;20573;-66
2022/05/24 03:11:18;;;;;;;8.73;7.00;;;;;;;;;;5059356;28;20320;-65
2022/05/24 03:16:28;;;;;;;11.03;6.93;;;;;;;;;;5060066;28;20597;-66
2022/05/24 03:18:54;;;;;;;7.80;6.20;;;;;;;;;;5059627;28;20174;-65
2022/05/24 03:21:20;;;;;;;10.87;6.73;;;;;;;;;;5055915;28;20201;-66
2022/05/24 03:23:46;;;;;;;9.77;6.27;;;;;;;;;;5056190;28;20210;-66
2022/05/24 03:26:14;;;;;;;10.97;6.60;;;;;;;;;;5038078;28;20214;-66
2022/05/24 03:28:40;;;;;;;10.53;6.30;;;;;;;;;;5055913;28;20175;-65
2022/05/24 03:31:07;;;;;;;7.40;6.37;;;;;;;;;;5055778;28;20256;-66
2022/05/24 03:33:34;;;;;;;8.43;6.47;;;;;;;;;;5055674;28;20174;-65
2022/05/24 03:35:59;;;;;;;10.67;6.27;;;;;;;;;;5038079;28;20222;-65
2022/05/24 03:38:27;;;;;;;7.17;5.93;;;;;;;;;;5055665;28;20360;-66
2022/05/24 03:40:53;;;;;;;7.97;6.53;;;;;;;;;;5055644;28;20256;-65
2022/05/24 03:43:20;;;;;;;8.73;5.80;;;;;;;;;;5055661;28;20174;-66
2022/05/24 03:45:47;;;;;;;6.57;5.07;;;;;;;;;;5055472;28;20210;-65
2022/05/24 03:48:13;;;;;;;6.60;5.57;;;;;;;;;;5055719;28;20166;-66
2022/05/24 03:50:39;;;;;;;7.53;5.57;;;;;;;;;;5055231;28;20241;-66
2022/05/24 03:53:05;;;;;;;7.20;5.93;;;;;;;;;;5037469;28;20182;-65
2022/05/24 03:55:31;;;;;;;8.13;5.37;;;;;;;;;;5037490;28;20202;-66
2022/05/24 03:58:00;;;;;;;7.00;6.23;;;;;;;;;;5055319;28;20238;-66
2022/05/24 04:00:26;;;;;;;9.13;5.70;;;;;;;;;;5037282;28;20811;-66
2022/05/24 04:02:52;;;;;;;6.33;5.23;;;;;;;;;;5037633;28;20658;-65
2022/05/24 04:05:18;;;;;;;8.10;5.43;;;;;;;;;;5055416;28;20203;-65
2022/05/24 04:07:44;;;;;;;7.67;4.90;;;;;;;;;;5037501;28;20336;-65
2022/05/24 04:10:12;;;;;;;5.70;4.80;;;;;;;;;;5055265;28;20170;-65
2022/05/24 04:12:38;;;;;;;6.97;4.60;;;;;;;;;;5055041;28;20183;-65
2022/05/24 04:15:04;;;;;;;7.43;5.03;;;;;;;;;;5055312;28;20174;-66
2022/05/24 04:17:30;;;;;;;9.63;5.20;;;;;;;;;;5055240;28;20174;-66
2022/05/24 04:19:56;;;;;;;5.33;4.40;;;;;;;;;;5054975;28;20657;-65
2022/05/24 04:22:22;;;;;;;7.03;4.80;;;;;;;;;;5055195;28;20706;-65
2022/05/24 04:24:48;;;;;;;7.67;4.53;;;;;;;;;;5036881;28;20210;-67
2022/05/24 04:27:14;;;;;;;7.07;4.80;;;;;;;;;;5055438;28;20580;-65
2022/05/24 04:29:41;;;;;;;5.23;4.53;;;;;;;;;;5036999;28;20182;-65
2022/05/24 04:32:08;;;;;;;5.90;4.47;;;;;;;;;;5054584;28;20579;-66
2022/05/24 04:34:34;;;;;;;7.00;4.20;;;;;;;;;;5055279;28;20529;-66
2022/05/24 04:37:00;;;;;;;6.13;4.40;;;;;;;;;;5054972;28;20316;-65
2022/05/24 04:39:26;;;;;;;6.37;4.10;;;;;;;;;;5036902;28;20239;-66
2022/05/24 04:44:36;;;;;;;7.40;4.27;;;;;;;;;;5055459;28;20255;-65
2022/05/24 04:47:08;;;;;;;4.87;4.13;;;;;;;;;;5036750;28;20221;-64
2022/05/24 04:49:39;;;;;;;6.30;4.00;;;;;;;;;;5054841;28;20257;-65
2022/05/24 04:52:06;;;;;;;6.60;3.77;;;;;;;;;;5054389;28;20217;-65
2022/05/24 04:54:32;;;;;;;10.40;4.00;;;;;;;;;;5036545;28;20642;-65
2022/05/24 04:56:58;;;;;;;5.90;3.80;;;;;;;;;;5054657;28;20582;-65
2022/05/24 04:59:24;;;;;;;5.63;3.43;;;;;;;;;;5036510;28;20178;-66
2022/05/24 05:01:53;;;;;;;5.33;3.70;;;;;;;;;;5054195;28;20298;-66
2022/05/24 05:04:20;;;;;;;9.30;3.90;;;;;;;;;;5054204;28;20673;-66
2022/05/24 05:06:46;;;;;;;7.70;4.30;;;;;;;;;;5054174;28;20179;-66
2022/05/24 05:09:13;;;;;;;6.13;3.87;;;;;;;;;;5036169;28;20178;-65
2022/05/24 05:11:39;;;;;;;5.70;3.80;;;;;;;;;;5053835;28;20288;-65
2022/05/24 05:14:05;;;;;;;8.30;3.53;;;;;;;;;;5053923;28;20658;-65
2022/05/24 05:16:31;;;;;;;5.37;3.37;;;;;;;;;;5035780;28;20558;-66
2022/05/24 05:18:57;;;;;;;3.93;3.53;;;;;;;;;;5053601;28;20178;-65
2022/05/24 05:21:23;;;;;;;3.67;3.27;;;;;;;;;;5053851;28;20721;-66
2022/05/24 05:23:49;;;;;;;4.73;3.00;;;;;;;;;;5053575;28;20183;-65
2022/05/24 05:26:15;;;;;;;3.67;3.00;;;;;;;;;;5053766;28;20209;-66
2022/05/24 05:28:42;;;;;;;4.93;2.67;;;;;;;;;;5053449;28;20175;-65
2022/05/24 05:31:21;;;;;;;7.03;2.83;;;;;;;;;;5053773;28;20201;-65
2022/05/24 05:33:50;;;;;;;6.30;2.73;;;;;;;;;;5035504;28;20174;-65
2022/05/24 05:36:16;;;;;;;5.70;3.50;;;;;;;;;;5053638;28;20174;-67
2022/05/24 05:38:46;;;;;;;4.97;2.60;;;;;;;;;;5053696;28;20702;-65
2022/05/24 05:41:17;;;;;;;3.47;2.87;;;;;;;;;;5035610;28;20202;-66
2022/05/24 05:43:43;;;;;;;5.73;2.57;;;;;;;;;;5053153;28;20174;-66
2022/05/24 05:46:09;;;;;;;8.30;2.67;;;;;;;;;;5035308;28;20613;-66
2022/05/24 05:48:36;;;;;;;2.73;2.20;;;;;;;;;;5035484;28;20660;-66
2022/05/24 05:51:02;;;;;;;4.90;2.53;;;;;;;;;;5053152;28;20216;-66
2022/05/24 05:53:28;;;;;;;3.13;2.40;;;;;;;;;;5035292;28;20657;-66
2022/05/24 05:55:54;;;;;;;5.00;2.27;;;;;;;;;;5035380;28;20269;-66
2022/05/24 05:58:20;;;;;;;6.20;2.30;;;;;;;;;;5053490;28;20224;-67
2022/05/24 06:00:49;;;;;;;5.93;2.60;;;;;;;;;;5053438;28;20277;-66
2022/05/24 06:03:16;;;;;;;5.50;2.83;;;;;;;;;;5053179;28;20206;-65
2022/05/24 06:05:43;;;;;;;4.43;2.60;;;;;;;;;;5035170;28;20347;-66
2022/05/24 06:08:10;;;;;;;4.90;2.33;;;;;;;;;;5053167;28;20202;-66
2022/05/24 06:10:36;;;;;;;3.43;2.23;;;;;;;;;;5035306;28;20701;-67
2022/05/24 06:13:02;;;;;;;4.00;2.10;;;;;;;;;;5053372;28;20631;-66
2022/05/24 06:15:28;;;;;;;3.63;2.67;;;;;;;;;;5035131;28;20251;-66
2022/05/24 06:17:55;;;;;;;6.23;3.93;;;;;;;;;;5053039;28;20530;-67
2022/05/24 06:20:22;;;;;;;6.17;3.63;;;;;;;;;;5035078;28;20204;-66
2022/05/24 06:22:49;;;;;;;5.50;3.30;;;;;;;;;;5035072;28;20178;-67
2022/05/24 06:25:16;;;;;;;3.93;3.00;;;;;;;;;;5053006;28;20285;-66
2022/05/24 06:27:42;;;;;;;6.40;3.07;;;;;;;;;;5053403;28;20600;-67
2022/05/24 06:30:08;;;;;;;6.17;2.97;;;;;;;;;;5052962;28;20198;-65
2022/05/24 06:32:34;;;;;;;4.30;2.80;;;;;;;;;;5035214;28;20178;-66
2022/05/24 06:35:00;;;;;;;5.07;3.33;;;;;;;;;;5053878;28;20179;-62
2022/05/24 06:37:26;;;;;;;3.63;2.57;;;;;;;;;;5035085;28;20183;-62
2022/05/24 06:39:52;;;;;;;8.07;3.00;;;;;;;;;;5035270;28;20273;-62
2022/05/24 06:42:18;;;;;;;3.87;2.93;;;;;;;;;;5034950;28;20289;-62
2022/05/24 06:44:44;;;;;;;5.43;2.70;;;;;;;;;;5052954;28;20198;-62
2022/05/24 06:47:10;;;;;;;3.57;2.40;;;;;;;;;;5052731;28;20174;-62
2022/05/24 06:49:36;;;;;;;3.87;2.53;;;;;;;;;;5053183;28;20661;-62
2022/05/24 06:52:03;;;;;;;5.00;2.30;;;;;;;;;;5053086;28;20597;-62
2022/05/24 06:54:29;;;;;;;3.47;2.37;;;;;;;;;;5035211;28;20225;-61
2022/05/24 06:56:55;;;;;;;3.47;2.30;;;;;;;;;;5038457;28;20182;-62
2022/05/24 07:02:25;;;;;;;6.13;3.13;;;;;;;;;;5057237;28;20240;-62
2022/05/24 07:04:55;;;;;;;3.63;2.10;;;;;;;;;;5058176;28;20654;-62
2022/05/24 07:07:21;;;;;;;2.83;2.20;;;;;;;;;;5057294;28;20231;-61
2022/05/24 07:09:47;;;;;;;5.37;2.43;;;;;;;;;;5057538;28;20170;-63
2022/05/24 07:12:16;;;;;;;2.70;2.10;;;;;;;;;;5039124;28;20205;-62
2022/05/24 07:14:43;;;;;;;3.93;2.30;;;;;;;;;;5056960;28;20312;-62
2022/05/24 07:17:09;;;;;;;3.13;2.27;;;;;;;;;;5039526;28;20320;-61
2022/05/24 07:19:35;;;;;;;5.03;2.10;;;;;;;;;;5057364;28;20647;-60
2022/05/24 07:22:01;;;;;;;3.13;2.20;;;;;;;;;;5038532;28;20580;-61
2022/05/24 07:24:27;;;;;;;5.20;2.53;;;;;;;;;;5056616;28;20645;-60
2022/05/24 07:26:53;;;;;;;5.43;2.50;;;;;;;;;;5056923;28;20178;-61
2022/05/24 07:29:19;;;;;;;3.70;2.20;;;;;;;;;;5057669;28;20254;-62
2022/05/24 07:31:45;;;;;;;5.87;2.20;;;;;;;;;;5057100;28;20240;-62
2022/05/24 07:34:11;;;;;;;2.70;1.83;;;;;;;;;;5056828;28;20623;-63
2022/05/24 07:36:37;;;;;;;6.53;2.40;;;;;;;;;;5056479;28;20626;-63
2022/05/24 07:39:03;;;;;;;3.23;2.20;;;;;;;;;;5038007;28;20183;-62
2022/05/24 07:46:58;;;;;;;4.30;1.97;;;;;;;;;;5055896;28;20166;-62
2022/05/24 07:49:24;;;;;;;6.30;2.30;;;;;;;;;;5038267;28;20178;-63
2022/05/24 07:51:50;;;;;;;2.90;2.30;;;;;;;;;;5055678;28;20210;-62
2022/05/24 07:54:16;;;;;;;3.30;2.17;;;;;;;;;;5053531;23;20230;-67
2022/05/24 07:56:42;;;;;;;3.13;2.23;;;;;;;;;;5055535;28;20190;-68
2022/05/24 07:59:09;;;;;;;2.10;2.00;;;;;;;;;;5055727;28;20646;-68
2022/05/24 08:01:36;;;;;;;4.07;2.27;;;;;;;;;;5055356;28;20329;-69
2022/05/24 08:04:03;;;;;;;3.40;2.10;;;;;;;;;;5055243;28;20666;-68
2022/05/24 08:06:28;;;;;;;3.17;2.10;;;;;;;;;;5036973;28;20277;-68
2022/05/24 08:08:54;;;;;;;3.57;1.87;;;;;;;;;;5055415;28;20538;-66
2022/05/24 08:11:21;;;;;;;3.53;1.87;;;;;;;;;;5037359;28;20190;-67
2022/05/24 08:13:47;;;;;;;3.60;1.83;;;;;;;;;;5055228;28;20257;-67
2022/05/24 08:16:13;;;;;;;2.77;1.97;;;;;;;;;;5055199;28;20221;-66
2022/05/24 08:18:39;;;;;;;3.20;2.10;;;;;;;;;;5037152;28;20654;-67
2022/05/24 08:21:05;;;;;;;2.77;2.13;;;;;;;;;;5055244;28;20189;-67
2022/05/24 08:23:31;;;;;;;1.70;1.60;;;;;;;;;;5055089;28;20179;-66
2022/05/24 08:25:57;;;;;;;3.23;1.97;;;;;;;;;;5054985;28;20198;-67
2022/05/24 08:28:23;;;;;;;3.33;1.70;;;;;;;;;;5055244;28;20284;-67
2022/05/24 08:30:50;;;;;;;2.03;1.83;;;;;;;;;;5054940;28;20182;-67
2022/05/24 08:33:17;;;;;;;3.20;1.73;;;;;;;;;;5055199;28;20170;-67
2022/05/24 08:35:44;;;;;;;2.47;2.00;;;;;;;;;;5054922;28;20198;-67
2022/05/24 08:38:12;;;;;;;2.00;1.47;;;;;;;;;;5054726;28;20181;-65
2022/05/24 08:40:39;;;;;;;1.83;1.50;;;;;;;;;;5037142;28;20610;-67
2022/05/24 08:43:11;;;;;;;2.57;1.33;;;;;;;;;;5054526;28;20671;-67
2022/05/24 08:49:00;;;;;;;5.30;2.00;;;;;;;;;;4993618;28;20293;-67
2022/05/24 08:51:28;;;;;;;2.77;1.87;;;;;;;;;;4993222;28;20557;-67
2022/05/24 08:53:55;;;;;;;2.27;1.77;;;;;;;;;;5006505;28;20566;-67
2022/05/24 08:56:43;;;;;;;2.30;1.50;;;;;;;;;;5054685;28;20182;-67
2022/05/24 08:59:09;;;;;;;1.40;1.30;;;;;;;;;;5054469;28;20163;-67
2022/05/24 09:01:35;;;;;;;2.80;1.60;;;;;;;;;;5054612;28;20665;-65
2022/05/24 09:04:06;;;;;;;5.77;1.93;;;;;;;;;;5054299;28;20213;-65
2022/05/24 09:06:38;;;;;;;2.30;1.87;;;;;;;;;;5054317;28;20186;-65
2022/05/24 09:09:17;;;;;;;2.87;1.40;;;;;;;;;;5036476;28;20166;-65
2022/05/24 09:11:46;;;;;;;1.90;1.73;;;;;;;;;;5054103;28;20171;-65
2022/05/24 09:14:16;;;;;;;2.30;1.80;;;;;;;;;;5053904;28;20245;-65
2022/05/24 09:16:47;;;;;;;2.97;2.07;;;;;;;;;;5054265;28;20170;-66
2022/05/24 09:19:25;;;;;;;1.80;1.70;;;;;;;;;;5053584;28;20155;-65
2022/05/24 09:21:53;;;;;;;3.03;1.83;;;;;;;;;;5036040;28;20210;-65
2022/05/24 09:24:18;;;;;;;4.77;1.83;;;;;;;;;;5035855;28;20297;-65
2022/05/24 09:27:03;;;;;;;2.90;1.90;;;;;;;;;;5035933;28;20270;-65
2022/05/24 09:29:31;;;;;;;3.13;2.00;;;;;;;;;;5035823;28;20178;-64
2022/05/24 09:31:58;;;;;;;2.17;1.97;;;;;;;;;;5053717;28;20547;-65
2022/05/24 09:34:27;;;;;;;3.43;1.80;;;;;;;;;;5053578;28;20195;-65
2022/05/24 09:36:55;;;;;;;2.67;2.13;;;;;;;;;;5035728;28;20665;-66
2022/05/24 09:39:25;;;;;;;5.47;1.67;;;;;;;;;;5053537;28;20643;-65
2022/05/24 09:41:53;;;;;;;1.33;1.23;;;;;;;;;;5053490;28;20185;-65
2022/05/24 09:44:19;;;;;;;2.60;1.50;;;;;;;;;;5053727;28;20583;-65
2022/05/24 09:46:46;;;;;;;5.03;1.40;;;;;;;;;;5035785;28;20261;-65
2022/05/24 09:49:27;;;;;;;1.70;1.33;;;;;;;;;;5054182;28;20277;-65
2022/05/24 09:51:57;;;;;;;4.13;1.53;;;;;;;;;;5053479;28;20170;-65
2022/05/24 09:54:27;;;;;;;1.57;1.40;;;;;;;;;;5035288;28;20221;-66
2022/05/24 09:57:10;;;;;;;1.30;1.20;;;;;;;;;;5035461;28;20181;-65
2022/05/24 09:59:39;;;;;;;1.50;1.20;;;;;;;;;;5053216;28;20178;-65
2022/05/24 10:02:24;;;;;;;1.50;1.40;;;;;;;;;;5053410;28;20170;-65
2022/05/24 10:04:50;;;;;;;1.00;1.00;;;;;;;;;;5053100;28;20253;-65
2022/05/24 10:07:24;;;;;;;2.27;1.20;;;;;;;;;;5053425;28;20198;-65
2022/05/24 10:10:08;;;;;;;1.03;1.00;;;;;;;;;;5053276;28;20244;-67
2022/05/24 10:12:34;;;;;;;1.57;1.00;;;;;;;;;;5053543;28;20184;-67
2022/05/24 10:15:06;;;;;;;2.53;1.13;;;;;;;;;;5035088;28;20288;-65
2022/05/24 10:17:39;;;;;;;1.20;1.10;;;;;;;;;;5035288;28;20236;-66
2022/05/24 10:20:12;;;;;;;1.10;1.10;;;;;;;;;;5053370;28;20161;-66
2022/05/24 10:22:44;;;;;;;1.27;1.17;;;;;;;;;;5053347;28;20658;-66
2022/05/24 10:25:10;;;;;;;1.53;1.20;;;;;;;;;;5053052;28;20725;-66
2022/05/24 10:27:48;;;;;;;2.40;1.20;;;;;;;;;;5053335;28;20205;-66
2022/05/24 10:30:23;;;;;;;1.00;1.00;;;;;;;;;;5055080;28;20261;-66
2022/05/24 10:39:02;;;;;;;1.20;1.10;;;;;;;;;;5057263;28;20244;-65
2022/05/24 10:41:28;;;;;;;1.23;1.10;;;;;;;;;;5057228;28;20171;-66
2022/05/24 10:44:13;;;;;;;1.33;1.23;;;;;;;;;;5039301;28;20209;-66
2022/05/24 10:46:57;;;;;;;1.20;1.20;;;;;;;;;;5038945;28;20248;-67
2022/05/24 10:49:29;;;;;;;2.77;1.40;;;;;;;;;;5038893;28;20185;-66
2022/05/24 10:52:00;;;;;;;2.40;1.40;;;;;;;;;;5038959;28;20225;-66
2022/05/24 10:54:29;;;;;;;1.27;1.10;;;;;;;;;;5039383;28;20217;-67
2022/05/24 10:56:58;;;;;;;2.07;1.20;;;;;;;;;;5038753;28;20714;-66
2022/05/24 10:59:24;;;;;;;2.47;1.70;;;;;;;;;;5056744;28;20174;-66
2022/05/24 11:01:56;;;;;;;1.93;1.13;;;;;;;;;;5056752;28;20174;-66
2022/05/24 11:04:24;;;;;;;2.17;1.20;;;;;;;;;;5056765;28;20198;-66
2022/05/24 11:07:11;;;;;;;1.17;1.10;;;;;;;;;;5056362;28;20166;-66
2022/05/24 11:09:41;;;;;;;1.30;1.20;;;;;;;;;;5038602;28;20171;-66
2022/05/24 11:12:12;;;;;;;2.47;1.30;;;;;;;;;;5038477;28;20236;-66
2022/05/24 11:14:41;;;;;;;4.63;1.33;;;;;;;;;;5038434;28;20303;-66
2022/05/24 11:17:10;;;;;;;1.57;1.30;;;;;;;;;;5038735;28;20274;-66
2022/05/24 11:19:37;;;;;;;1.37;1.00;;;;;;;;;;5038707;28;20527;-66
2022/05/24 11:22:11;;;;;;;1.13;1.00;;;;;;;;;;5056576;28;20287;-66
2022/05/24 11:24:39;;;;;;;1.07;1.00;;;;;;;;;;5056158;28;20252;-66
2022/05/24 11:27:06;;;;;;;1.43;1.13;;;;;;;;;;5056089;28;20206;-66
2022/05/24 11:29:43;;;;;;;2.00;1.20;;;;;;;;;;5056123;28;20190;-65
2022/05/24 11:32:09;;;;;;;1.40;1.30;;;;;;;;;;5056124;28;20170;-66
2022/05/24 11:34:51;;;;;;;1.90;1.60;;;;;;;;;;5055964;28;20241;-66
2022/05/24 11:37:26;;;;;;;1.30;1.20;;;;;;;;;;5038121;28;20265;-66
2022/05/24 11:39:52;;;;;;;2.50;1.03;;;;;;;;;;5055951;28;20185;-66
2022/05/24 11:42:20;;;;;;;2.87;1.63;;;;;;;;;;5037135;28;20202;-66
2022/05/24 11:44:46;;;;;;;2.60;1.43;;;;;;;;;;5055526;28;20233;-66
2022/05/24 11:47:31;;;;;;;2.03;1.20;;;;;;;;;;5037965;28;20179;-66
2022/05/24 11:49:58;;;;;;;1.00;1.00;;;;;;;;;;5055749;28;20170;-66
2022/05/24 11:52:41;;;;;;;1.77;1.30;;;;;;;;;;5037729;28;20224;-66
2022/05/24 11:55:08;;;;;;;2.27;1.40;;;;;;;;;;5037541;28;20218;-66
2022/05/24 11:57:42;;;;;;;1.63;1.30;;;;;;;;;;5055680;28;20269;-66
2022/05/24 12:00:09;;;;;;;2.30;1.50;;;;;;;;;;5055701;28;20545;-66
2022/05/24 12:07:54;;;;;;;2.30;1.30;;;;;;;;;;5055606;28;20182;-66
2022/05/24 12:08:29;;;;;;;1.83;1.73;;;;;;;;;;5055177;28;20186;-66
2022/05/24 12:11:04;;;;;;;2.27;1.40;;;;;;;;;;5055626;28;20159;-67
2022/05/24 12:13:54;;;;;;;2.40;2.10;;;;;;;;;;5055329;28;20249;-66
2022/05/24 12:16:43;;;;;;;1.87;1.77;;;;;;;;;;5037740;28;20178;-65
2022/05/24 12:19:11;;;;;;;2.13;1.93;;;;;;;;;;5018113;28;20224;-65
2022/05/24 12:21:41;;;;;;;2.53;1.80;;;;;;;;;;5055040;28;20590;-65
2022/05/24 12:24:24;;;;;;;1.60;1.50;;;;;;;;;;5055144;28;20201;-66
2022/05/24 12:27:09;;;;;;;2.10;1.70;;;;;;;;;;5037050;28;20213;-66
2022/05/24 12:29:36;;;;;;;2.00;1.20;;;;;;;;;;5037160;28;20182;-65
2022/05/24 12:32:05;;;;;;;1.17;1.17;;;;;;;;;;5037136;28;20206;-66
2022/05/24 12:34:32;;;;;;;1.63;1.53;;;;;;;;;;5054734;28;20201;-65
2022/05/24 12:36:59;;;;;;;1.67;1.40;;;;;;;;;;5055075;28;20189;-65
2022/05/24 12:39:26;;;;;;;3.33;1.50;;;;;;;;;;5054775;28;20630;-66
2022/05/24 12:41:59;;;;;;;1.83;1.53;;;;;;;;;;5054787;28;20254;-65
2022/05/24 12:44:28;;;;;;;1.43;1.33;;;;;;;;;;5054253;28;20201;-65
2022/05/24 12:46:55;;;;;;;1.57;1.40;;;;;;;;;;5054733;28;20225;-65
2022/05/24 12:49:22;;;;;;;1.90;1.50;;;;;;;;;;5054345;28;20538;-66
2022/05/24 12:51:48;;;;;;;1.43;1.33;;;;;;;;;;5054235;28;20204;-65
2022/05/24 12:54:19;;;;;;;1.43;1.33;;;;;;;;;;5036323;28;20221;-65
2022/05/24 12:57:12;;;;;;;1.20;1.10;;;;;;;;;;5036405;28;20320;-66
2022/05/24 12:59:40;;;;;;;0.97;0.97;;;;;;;;;;5033352;28;20236;-71
2022/05/24 13:02:15;;;;;;;1.07;0.97;;;;;;;;;;5054340;28;20204;-65
2022/05/24 13:04:41;;;;;;;1.00;0.90;;;;;;;;;;5054259;28;20666;-65
2022/05/24 13:07:19;;;;;;;1.10;1.00;;;;;;;;;;5036335;28;20178;-65
2022/05/24 13:09:45;;;;;;;1.00;1.00;;;;;;;;;;5054417;28;20534;-65
2022/05/24 13:12:12;;;;;;;0.87;0.87;;;;;;;;;;5035940;28;20193;-65
2022/05/24 13:14:41;;;;;;;0.80;0.80;;;;;;;;;;5054194;28;20712;-65
2022/05/24 13:17:08;;;;;;;0.90;0.90;;;;;;;;;;5053868;28;20209;-65
2022/05/24 13:19:52;;;;;;;1.90;1.00;;;;;;;;;;5036054;28;20193;-64
2022/05/24 13:22:19;;;;;;;1.03;1.03;;;;;;;;;;5053761;28;20182;-65
2022/05/24 13:24:55;;;;;;;1.00;1.00;;;;;;;;;;5035712;28;20210;-65
2022/05/24 13:27:21;;;;;;;1.10;1.10;;;;;;;;;;5053874;28;20178;-65
2022/05/24 13:35:27;;;;;;;1.10;1.00;;;;;;;;;;5053794;28;20336;-64
2022/05/24 13:37:54;;;;;;;2.97;1.00;;;;;;;;;;5053407;28;20182;-64
2022/05/24 13:40:34;;;;;;;0.90;0.90;;;;;;;;;;5053385;28;20261;-64
2022/05/24 13:43:00;;;;;;;1.07;0.90;;;;;;;;;;5053863;28;20176;-65
2022/05/24 13:45:27;;;;;;;1.27;1.10;;;;;;;;;;5035316;28;20206;-65
2022/05/24 13:47:58;;;;;;;1.23;1.13;;;;;;;;;;5053798;28;20274;-65
2022/05/24 13:50:30;;;;;;;1.97;1.63;;;;;;;;;;5053671;28;20700;-65
2022/05/24 13:52:58;;;;;;;1.60;1.50;;;;;;;;;;5053447;28;20175;-65
2022/05/24 13:55:27;;;;;;;1.20;1.10;;;;;;;;;;5035154;28;20245;-65
2022/05/24 13:57:55;;;;;;;2.37;1.00;;;;;;;;;;5053339;28;20258;-65
2022/05/24 14:00:27;;;;;;;1.10;1.00;;;;;;;;;;5035341;28;20214;-65
2022/05/24 14:03:07;;;;;;;1.00;0.90;;;;;;;;;;5053164;28;20182;-65
2022/05/24 14:05:33;;;;;;;0.80;0.80;;;;;;;;;;5052751;28;20544;-65
2022/05/24 14:08:00;;;;;;;1.20;1.00;;;;;;;;;;5053191;28;20608;-65
2022/05/24 14:10:26;;;;;;;0.90;0.90;;;;;;;;;;5053309;28;20175;-65
2022/05/24 14:12:52;;;;;;;1.30;1.20;;;;;;;;;;5053236;28;20185;-65
2022/05/24 14:15:18;;;;;;;1.83;1.00;;;;;;;;;;5035179;28;20781;-65
2022/05/24 14:17:44;;;;;;;2.53;1.10;;;;;;;;;;5053246;28;20182;-66
2022/05/24 14:20:10;;;;;;;1.03;1.03;;;;;;;;;;5053671;28;20180;-65
2022/05/24 14:22:36;;;;;;;1.67;1.30;;;;;;;;;;5053095;28;20662;-65
2022/05/24 14:25:02;;;;;;;1.20;1.10;;;;;;;;;;5053139;28;20213;-65
2022/05/24 14:27:28;;;;;;;1.03;1.00;;;;;;;;;;5053026;28;20179;-65
2022/05/24 14:29:54;;;;;;;3.20;1.20;;;;;;;;;;5053126;28;20185;-65
2022/05/24 14:32:20;;;;;;;1.67;1.10;;;;;;;;;;5052916;28;20236;-66
2022/05/24 14:34:46;;;;;;;1.10;1.10;;;;;;;;;;5052830;28;20201;-66
2022/05/24 14:37:12;;;;;;;1.43;1.33;;;;;;;;;;5035051;28;20181;-65
2022/05/24 14:39:38;;;;;;;1.10;1.10;;;;;;;;;;5053023;28;20218;-65
2022/05/24 14:42:04;;;;;;;1.27;1.17;;;;;;;;;;5053442;28;20182;-65
2022/05/24 14:44:34;;;;;;;2.77;1.57;;;;;;;;;;5052841;28;20254;-65
2022/05/24 14:47:01;;;;;;;1.20;1.10;;;;;;;;;;5053211;28;20170;-65
2022/05/24 14:49:27;;;;;;;1.27;1.10;;;;;;;;;;5034987;28;20643;-65
2022/05/24 14:51:59;;;;;;;2.30;1.23;;;;;;;;;;5063182;22;20229;-67
2022/05/24 14:54:26;;;;;;;1.27;1.17;;;;;;;;;;5055806;28;20692;-67
2022/05/24 14:56:53;;;;;;;2.40;1.00;;;;;;;;;;5073294;28;20166;-67
2022/05/24 14:59:20;;;;;;;1.00;1.00;;;;;;;;;;5073045;28;20301;-66
2022/05/24 15:01:46;;;;;;;1.00;1.00;;;;;;;;;;5073116;28;20201;-66
2022/05/24 15:04:13;;;;;;;1.40;1.00;;;;;;;;;;5072912;28;20170;-67
2022/05/24 15:06:40;;;;;;;1.17;1.10;;;;;;;;;;5073301;28;20208;-67
2022/05/24 15:17:33;;;;;;;2.00;1.70;;;;;;;;;;5074663;28;20165;-65
2022/05/24 15:19:59;;;;;;;3.63;1.90;;;;;;;;;;5076350;28;20651;-66
2022/05/24 15:22:25;;;;;;;1.87;1.77;;;;;;;;;;5076243;28;20193;-66
2022/05/24 15:24:51;;;;;;;1.80;1.70;;;;;;;;;;5076614;28;20798;-65
2022/05/24 15:27:17;;;;;;;2.27;1.80;;;;;;;;;;5076205;28;20682;-65
2022/05/24 15:29:43;;;;;;;3.97;3.20;;;;;;;;;;5076443;28;20665;-65
2022/05/24 15:32:09;;;;;;;1.30;1.20;;;;;;;;;;5076386;28;20552;-66
2022/05/24 15:34:35;;;;;;;2.03;1.27;;;;;;;;;;5058418;28;20181;-66
2022/05/24 15:37:02;;;;;;;1.50;1.20;;;;;;;;;;5076615;28;20173;-65
2022/05/24 15:39:28;;;;;;;1.20;1.10;;;;;;;;;;5076295;28;20181;-65